createdAt,value
2022-11-16T00:02:08.943Z,18.64
2022-11-16T00:04:35.416Z,18.63
2022-11-16T00:07:01.817Z,18.60
2022-11-16T00:09:28.359Z,18.60
2022-11-16T00:11:54.655Z,18.61
2022-11-16T00:14:21.266Z,18.60
2022-11-16T00:16:47.681Z,18.58
2022-11-16T00:19:14.197Z,18.57
2022-11-16T00:21:40.619Z,18.54
2022-11-16T00:24:07.007Z,18.52
2022-11-16T00:26:33.412Z,18.49
2022-11-16T00:28:59.915Z,18.46
2022-11-16T00:31:26.317Z,18.47
2022-11-16T00:33:52.638Z,18.43
2022-11-16T00:36:18.995Z,18.44
2022-11-16T00:38:45.723Z,18.45
2022-11-16T00:41:12.152Z,18.44
2022-11-16T00:43:38.531Z,18.45
2022-11-16T00:46:04.933Z,18.44
2022-11-16T00:48:31.690Z,18.44
2022-11-16T00:50:58.336Z,18.43
2022-11-16T00:53:24.770Z,18.43
2022-11-16T00:55:51.124Z,18.41
2022-11-16T00:58:17.648Z,18.39
2022-11-16T01:00:44.083Z,18.39
2022-11-16T01:03:10.484Z,18.37
2022-11-16T01:05:36.849Z,18.35
2022-11-16T01:08:03.297Z,18.34
2022-11-16T01:10:29.615Z,18.38
2022-11-16T01:12:56.118Z,18.33
2022-11-16T01:15:22.445Z,18.33
2022-11-16T01:17:48.799Z,18.30
2022-11-16T01:20:16.136Z,18.29
2022-11-16T01:22:42.469Z,18.27
2022-11-16T01:25:08.837Z,18.27
2022-11-16T01:27:35.310Z,18.26
2022-11-16T01:30:01.765Z,18.24
2022-11-16T01:32:28.514Z,18.26
2022-11-16T01:34:54.935Z,18.22
2022-11-16T01:37:21.272Z,18.23
2022-11-16T01:39:47.814Z,18.24
2022-11-16T01:42:14.496Z,18.24
2022-11-16T01:44:40.807Z,18.19
2022-11-16T01:47:07.158Z,18.20
2022-11-16T01:49:33.554Z,18.18
2022-11-16T01:51:59.889Z,18.17
2022-11-16T01:54:26.414Z,18.16
2022-11-16T01:56:52.753Z,18.15
2022-11-16T01:59:19.133Z,18.15
2022-11-16T02:01:45.582Z,18.13
2022-11-16T02:04:12.624Z,18.13
2022-11-16T02:06:39.630Z,18.13
2022-11-16T02:09:09.676Z,18.11
2022-11-16T02:11:36.078Z,18.10
2022-11-16T02:14:02.442Z,18.11
2022-11-16T02:16:28.869Z,18.09
2022-11-16T02:18:55.277Z,18.09
2022-11-16T02:21:21.708Z,18.08
2022-11-16T02:23:48.121Z,18.05
2022-11-16T02:26:14.570Z,18.05
2022-11-16T02:28:40.950Z,18.03
2022-11-16T02:31:07.292Z,18.03
2022-11-16T02:33:33.707Z,18.00
2022-11-16T02:36:00.009Z,18.00
2022-11-16T02:38:26.461Z,17.99
2022-11-16T02:40:52.983Z,17.99
2022-11-16T02:43:19.315Z,18.00
2022-11-16T02:45:45.677Z,18.01
2022-11-16T02:48:11.962Z,17.98
2022-11-16T02:50:38.419Z,17.98
2022-11-16T02:53:04.753Z,17.97
2022-11-16T02:55:31.088Z,17.95
2022-11-16T02:57:57.415Z,17.95
2022-11-16T03:00:23.910Z,17.94
2022-11-16T03:02:50.406Z,17.93
2022-11-16T03:05:16.754Z,17.92
2022-11-16T03:07:43.081Z,17.92
2022-11-16T03:10:09.883Z,17.91
2022-11-16T03:12:36.272Z,17.90
2022-11-16T03:15:02.676Z,17.89
2022-11-16T03:17:29.038Z,17.87
2022-11-16T03:19:55.346Z,17.89
2022-11-16T03:22:21.634Z,17.89
2022-11-16T03:24:47.935Z,17.89
2022-11-16T03:27:14.311Z,17.87
2022-11-16T03:29:40.753Z,17.85
2022-11-16T03:32:07.104Z,17.85
2022-11-16T03:34:33.553Z,17.83
2022-11-16T03:36:59.942Z,17.83
2022-11-16T03:39:26.425Z,17.81
2022-11-16T03:41:52.775Z,17.83
2022-11-16T03:44:19.154Z,17.82
2022-11-16T03:46:45.525Z,17.82
2022-11-16T03:49:11.916Z,17.79
2022-11-16T03:51:38.210Z,17.80
2022-11-16T03:54:04.686Z,17.80
2022-11-16T03:56:31.011Z,17.78
2022-11-16T03:58:57.503Z,17.78
2022-11-16T04:01:23.871Z,17.77
2022-11-16T04:03:50.215Z,17.76
2022-11-16T04:06:16.529Z,17.75
2022-11-16T04:08:42.928Z,17.77
2022-11-16T04:11:09.411Z,17.75
2022-11-16T04:13:35.869Z,17.74
2022-11-16T04:16:02.332Z,17.72
2022-11-16T04:18:28.680Z,17.71
2022-11-16T04:20:55.069Z,17.73
2022-11-16T04:23:21.678Z,17.72
2022-11-16T04:25:48.166Z,17.71
2022-11-16T04:28:14.663Z,17.72
2022-11-16T04:30:40.986Z,17.69
2022-11-16T04:33:07.362Z,17.70
2022-11-16T04:35:33.809Z,17.71
2022-11-16T04:38:00.227Z,17.71
2022-11-16T04:40:26.682Z,17.70
2022-11-16T04:42:53.236Z,17.69
2022-11-16T04:45:19.564Z,17.70
2022-11-16T04:47:45.941Z,17.68
2022-11-16T04:50:12.346Z,17.68
2022-11-16T04:52:38.743Z,17.66
2022-11-16T04:55:07.427Z,17.64
2022-11-16T04:57:33.936Z,17.64
2022-11-16T05:00:00.310Z,17.69
2022-11-16T05:02:26.876Z,17.67
2022-11-16T05:04:53.321Z,17.66
2022-11-16T05:07:19.758Z,17.65
2022-11-16T05:09:46.175Z,17.63
2022-11-16T05:12:12.545Z,17.64
2022-11-16T05:14:39.022Z,17.64
2022-11-16T05:17:05.538Z,17.63
2022-11-16T05:19:31.925Z,17.63
2022-11-16T05:21:58.420Z,17.61
2022-11-16T05:24:24.796Z,17.61
2022-11-16T05:26:51.216Z,17.65
2022-11-16T05:29:17.663Z,17.64
2022-11-16T05:31:44.285Z,17.63
2022-11-16T05:34:10.872Z,17.59
2022-11-16T05:36:37.319Z,17.60
2022-11-16T05:39:03.687Z,17.59
2022-11-16T05:41:30.246Z,17.59
2022-11-16T05:43:56.597Z,17.59
2022-11-16T05:46:23.044Z,17.61
2022-11-16T05:48:49.397Z,17.58
2022-11-16T05:51:15.752Z,17.59
2022-11-16T05:53:43.416Z,17.57
2022-11-16T05:56:09.836Z,17.60
2022-11-16T05:58:36.551Z,17.58
2022-11-16T06:01:03.227Z,17.58
2022-11-16T06:03:29.823Z,17.56
2022-11-16T06:05:56.350Z,17.57
2022-11-16T06:08:22.735Z,17.56
2022-11-16T06:10:49.113Z,17.55
2022-11-16T06:13:19.508Z,17.51
2022-11-16T06:15:51.381Z,17.52
2022-11-16T06:18:17.985Z,17.51
2022-11-16T06:20:44.355Z,17.49
2022-11-16T06:23:10.696Z,17.49
2022-11-16T06:25:37.046Z,17.47
2022-11-16T06:28:07.666Z,17.47
2022-11-16T06:30:34.576Z,17.46
2022-11-16T06:33:00.988Z,17.44
2022-11-16T06:35:27.445Z,17.43
2022-11-16T06:40:34.152Z,17.42
2022-11-16T06:43:00.520Z,17.42
2022-11-16T06:45:26.986Z,17.40
2022-11-16T06:47:53.290Z,17.39
2022-11-16T06:50:19.918Z,17.39
2022-11-16T06:52:46.571Z,17.39
2022-11-16T06:55:12.908Z,17.39
2022-11-16T06:57:39.453Z,17.39
2022-11-16T07:00:05.798Z,17.36
2022-11-16T07:02:32.122Z,17.38
2022-11-16T07:05:03.310Z,17.39
2022-11-16T07:07:30.557Z,17.37
2022-11-16T07:09:56.944Z,17.36
2022-11-16T07:12:23.297Z,17.37
2022-11-16T07:14:49.779Z,17.35
2022-11-16T07:17:17.159Z,17.35
2022-11-16T07:19:43.598Z,17.35
2022-11-16T07:22:09.989Z,17.33
2022-11-16T07:24:36.327Z,17.35
2022-11-16T07:27:02.671Z,17.37
2022-11-16T07:29:29.022Z,17.37
2022-11-16T07:31:55.392Z,17.34
2022-11-16T07:34:21.705Z,17.36
2022-11-16T07:36:50.045Z,17.35
2022-11-16T07:39:16.386Z,17.37
2022-11-16T07:41:42.904Z,17.35
2022-11-16T07:44:12.034Z,17.38
2022-11-16T07:46:46.562Z,17.36
2022-11-16T07:49:13.862Z,17.32
2022-11-16T07:51:40.273Z,17.32
2022-11-16T07:54:06.657Z,17.31
2022-11-16T07:56:33.047Z,17.30
2022-11-16T07:58:59.588Z,17.27
2022-11-16T08:01:26.059Z,17.27
2022-11-16T08:03:52.691Z,17.26
2022-11-16T08:06:19.369Z,17.24
2022-11-16T08:08:45.758Z,17.25
2022-11-16T08:11:12.189Z,17.24
2022-11-16T08:13:38.598Z,17.23
2022-11-16T08:16:04.951Z,17.21
2022-11-16T08:18:31.828Z,17.21
2022-11-16T08:20:58.503Z,17.21
2022-11-16T08:23:24.849Z,17.19
2022-11-16T08:25:51.263Z,17.22
2022-11-16T08:28:17.888Z,17.22
2022-11-16T08:30:48.381Z,17.19
2022-11-16T08:33:17.421Z,17.18
2022-11-16T08:35:43.878Z,17.22
2022-11-16T08:38:10.357Z,17.22
2022-11-16T08:40:36.742Z,17.19
2022-11-16T08:43:03.119Z,17.22
2022-11-16T08:45:29.621Z,17.25
2022-11-16T08:48:03.368Z,17.28
2022-11-16T08:50:33.462Z,17.28
2022-11-16T08:53:06.195Z,17.26
2022-11-16T08:55:32.733Z,17.29
2022-11-16T08:57:59.488Z,17.28
2022-11-16T09:00:25.823Z,17.23
2022-11-16T09:02:52.169Z,17.22
2022-11-16T09:05:18.469Z,17.22
2022-11-16T09:07:44.809Z,17.22
2022-11-16T09:10:11.301Z,17.22
2022-11-16T09:12:37.879Z,17.18
2022-11-16T09:15:04.221Z,17.15
2022-11-16T09:17:30.779Z,17.15
2022-11-16T09:19:57.147Z,17.14
2022-11-16T09:22:23.547Z,17.13
2022-11-16T09:24:50.124Z,17.15
2022-11-16T09:27:16.603Z,17.14
2022-11-16T09:29:42.992Z,17.13
2022-11-16T09:32:09.424Z,17.14
2022-11-16T09:34:35.744Z,17.13
2022-11-16T09:37:02.152Z,17.16
2022-11-16T09:39:31.493Z,17.21
2022-11-16T09:41:58.348Z,17.19
2022-11-16T09:44:25.138Z,17.20
2022-11-16T09:46:51.806Z,17.19
2022-11-16T09:49:18.383Z,17.19
2022-11-16T09:51:45.086Z,17.19
2022-11-16T09:54:11.631Z,17.18
2022-11-16T09:56:37.999Z,17.17
2022-11-16T09:59:04.464Z,17.20
2022-11-16T10:01:30.838Z,17.19
2022-11-16T10:03:57.323Z,17.20
2022-11-16T10:06:23.837Z,17.19
2022-11-16T10:08:50.317Z,17.20
2022-11-16T10:11:16.714Z,17.20
2022-11-16T10:13:43.309Z,17.20
2022-11-16T10:16:09.713Z,17.20
2022-11-16T10:18:36.070Z,17.20
2022-11-16T10:21:02.529Z,17.21
2022-11-16T10:23:29.027Z,17.23
2022-11-16T10:25:55.590Z,17.23
2022-11-16T10:28:21.970Z,17.22
2022-11-16T10:30:48.412Z,17.23
2022-11-16T10:33:14.884Z,17.23
2022-11-16T10:35:41.306Z,17.24
2022-11-16T10:38:07.864Z,17.25
2022-11-16T10:40:34.390Z,17.26
2022-11-16T10:43:00.846Z,17.25
2022-11-16T10:45:27.242Z,17.25
2022-11-16T10:47:53.848Z,17.25
2022-11-16T10:50:20.300Z,17.25
2022-11-16T10:52:46.836Z,17.25
2022-11-16T10:55:13.205Z,17.25
2022-11-16T10:57:39.595Z,17.25
2022-11-16T11:00:12.540Z,17.25
2022-11-16T11:02:39.158Z,17.26
2022-11-16T11:05:05.708Z,17.26
2022-11-16T11:07:32.822Z,17.28
2022-11-16T11:09:59.357Z,17.29
2022-11-16T11:12:25.735Z,17.29
2022-11-16T11:14:52.127Z,17.30
2022-11-16T11:17:18.768Z,17.31
2022-11-16T11:19:45.338Z,17.30
2022-11-16T11:22:11.738Z,17.31
2022-11-16T11:24:44.265Z,17.31
2022-11-16T11:27:11.612Z,17.31
2022-11-16T11:29:38.270Z,17.34
2022-11-16T11:32:04.681Z,17.33
2022-11-16T11:34:31.049Z,17.31
2022-11-16T11:36:57.397Z,17.30
2022-11-16T11:39:23.854Z,17.31
2022-11-16T11:41:50.416Z,17.33
2022-11-16T11:44:16.761Z,17.33
2022-11-16T11:47:28.605Z,17.33
2022-11-16T11:49:33.664Z,17.34
2022-11-16T11:52:00.573Z,17.33
2022-11-16T11:54:27.047Z,17.34
2022-11-16T11:56:53.544Z,17.35
2022-11-16T11:59:20.084Z,17.34
2022-11-16T12:01:46.516Z,17.34
2022-11-16T12:04:12.921Z,17.35
2022-11-16T12:06:43.748Z,17.35
2022-11-16T12:09:10.821Z,17.34
2022-11-16T12:11:37.308Z,17.35
2022-11-16T12:14:03.743Z,17.34
2022-11-16T12:16:30.296Z,17.34
2022-11-16T12:18:56.930Z,17.35
2022-11-16T12:21:23.267Z,17.34
2022-11-16T12:23:49.754Z,17.34
2022-11-16T12:26:16.169Z,17.34
2022-11-16T12:28:44.908Z,17.35
2022-11-16T12:31:13.590Z,17.34
2022-11-16T12:33:40.383Z,17.34
2022-11-16T12:36:06.747Z,17.35
2022-11-16T12:38:33.204Z,17.35
2022-11-16T12:40:59.794Z,17.35
2022-11-16T12:43:26.283Z,17.33
2022-11-16T12:45:52.853Z,17.34
2022-11-16T12:48:19.211Z,17.35
2022-11-16T12:50:45.780Z,17.34
2022-11-16T12:53:13.952Z,17.33
2022-11-16T12:55:40.294Z,17.33
2022-11-16T12:58:06.798Z,17.34
2022-11-16T13:00:33.392Z,17.33
2022-11-16T13:02:59.825Z,17.32
2022-11-16T13:05:26.362Z,17.32
2022-11-16T13:07:52.985Z,17.32
2022-11-16T13:10:19.444Z,17.30
2022-11-16T13:12:45.862Z,17.32
2022-11-16T13:15:12.301Z,17.30
2022-11-16T13:17:38.633Z,17.29
2022-11-16T13:20:06.288Z,17.29
2022-11-16T13:22:35.504Z,17.27
2022-11-16T13:25:01.917Z,17.26
2022-11-16T13:27:28.291Z,17.26
2022-11-16T13:29:54.723Z,17.23
2022-11-16T13:32:21.125Z,17.24
2022-11-16T13:34:47.838Z,17.25
2022-11-16T13:37:14.315Z,17.25
2022-11-16T13:39:40.949Z,17.23
2022-11-16T13:42:09.521Z,17.21
2022-11-16T13:44:35.902Z,17.23
2022-11-16T13:47:02.440Z,17.25
2022-11-16T13:49:28.887Z,17.24
2022-11-16T13:51:55.235Z,17.20
2022-11-16T13:57:09.248Z,17.21
2022-11-16T13:59:35.826Z,17.20
2022-11-16T14:02:02.397Z,17.19
2022-11-16T14:04:29.031Z,17.19
2022-11-16T14:06:55.543Z,17.17
2022-11-16T14:09:21.976Z,17.17
2022-11-16T14:11:48.539Z,17.17
2022-11-16T14:14:15.044Z,17.16
2022-11-16T14:16:41.507Z,17.16
2022-11-16T14:19:08.012Z,17.15
2022-11-16T14:21:34.452Z,17.13
2022-11-16T14:24:00.897Z,17.15
2022-11-16T14:26:27.957Z,17.16
2022-11-16T14:28:54.397Z,17.15
2022-11-16T14:31:20.841Z,17.14
2022-11-16T14:33:47.324Z,17.15
2022-11-16T14:36:14.056Z,17.16
2022-11-16T14:38:40.462Z,17.14
2022-11-16T14:41:06.818Z,17.12
2022-11-16T14:43:33.740Z,17.12
2022-11-16T14:46:00.439Z,17.10
2022-11-16T14:48:29.063Z,17.11
2022-11-16T14:50:55.489Z,17.10
2022-11-16T14:53:21.880Z,17.10
2022-11-16T14:55:49.219Z,17.08
2022-11-16T14:58:15.692Z,17.08
2022-11-16T15:00:42.128Z,17.07
2022-11-16T15:03:08.674Z,17.06
2022-11-16T15:05:35.185Z,17.05
2022-11-16T15:08:01.608Z,17.03
2022-11-16T15:10:28.333Z,17.03
2022-11-16T15:12:54.715Z,17.02
2022-11-16T15:15:21.270Z,17.02
2022-11-16T15:17:47.633Z,17.01
2022-11-16T15:20:14.104Z,17.00
2022-11-16T15:22:40.841Z,17.00
2022-11-16T15:25:07.158Z,16.99
2022-11-16T15:27:34.255Z,16.99
2022-11-16T15:30:00.624Z,16.96
2022-11-16T15:32:27.140Z,16.95
2022-11-16T15:34:53.594Z,16.95
2022-11-16T15:37:23.052Z,16.96
2022-11-16T15:39:49.472Z,16.94
2022-11-16T15:42:16.177Z,16.93
2022-11-16T15:44:42.645Z,16.95
2022-11-16T15:47:09.030Z,16.93
2022-11-16T15:49:35.725Z,16.91
2022-11-16T15:52:02.133Z,16.92
2022-11-16T15:54:28.479Z,16.90
2022-11-16T15:56:54.867Z,16.91
2022-11-16T15:59:21.184Z,16.90
2022-11-16T16:01:47.764Z,16.93
2022-11-16T16:04:14.404Z,16.93
2022-11-16T16:06:41.108Z,16.95
2022-11-16T16:09:07.580Z,16.94
2022-11-16T16:11:34.043Z,16.95
2022-11-16T16:14:00.503Z,16.96
2022-11-16T16:16:26.857Z,16.95
2022-11-16T16:18:53.329Z,16.94
2022-11-16T16:21:19.703Z,16.94
2022-11-16T16:23:46.166Z,16.93
2022-11-16T16:26:12.484Z,16.92
2022-11-16T16:28:39.085Z,16.91
2022-11-16T16:31:05.411Z,16.91
2022-11-16T16:33:31.997Z,16.91
2022-11-16T16:35:58.646Z,16.91
2022-11-16T16:38:24.996Z,16.90
2022-11-16T16:40:51.365Z,16.91
2022-11-16T16:43:17.888Z,16.91
2022-11-16T16:45:44.392Z,16.91
2022-11-16T16:48:10.940Z,16.91
2022-11-16T16:50:37.236Z,16.90
2022-11-16T16:53:03.545Z,16.90
2022-11-16T16:55:35.713Z,16.91
2022-11-16T16:58:03.545Z,16.90
2022-11-16T17:00:29.895Z,16.88
2022-11-16T17:02:56.233Z,16.91
2022-11-16T17:05:22.617Z,16.91
2022-11-16T17:07:49.038Z,16.91
2022-11-16T17:10:15.404Z,16.91
2022-11-16T17:12:41.744Z,16.90
2022-11-16T17:15:08.064Z,16.88
2022-11-16T17:17:34.428Z,16.89
2022-11-16T17:20:01.085Z,16.86
2022-11-16T17:22:27.753Z,16.87
2022-11-16T17:24:54.122Z,16.85
2022-11-16T17:27:20.838Z,16.86
2022-11-16T17:29:47.424Z,16.87
2022-11-16T17:32:13.917Z,16.84
2022-11-16T17:34:40.315Z,16.86
2022-11-16T17:37:06.740Z,16.86
2022-11-16T17:39:33.117Z,16.87
2022-11-16T17:41:59.558Z,16.83
2022-11-16T17:44:25.908Z,16.87
2022-11-16T17:46:52.305Z,16.88
2022-11-16T17:49:18.659Z,16.89
2022-11-16T17:51:45.000Z,16.92
2022-11-16T17:54:11.333Z,16.92
2022-11-16T17:56:37.624Z,16.94
2022-11-16T17:59:04.306Z,16.94
2022-11-16T18:01:30.832Z,16.91
2022-11-16T18:03:57.323Z,16.94
2022-11-16T18:06:23.601Z,16.89
2022-11-16T18:08:49.974Z,16.88
2022-11-16T18:11:16.336Z,16.90
2022-11-16T18:13:42.677Z,16.87
2022-11-16T18:16:09.214Z,16.85
2022-11-16T18:18:35.543Z,16.89
2022-11-16T18:21:02.021Z,16.92
2022-11-16T18:23:30.465Z,16.89
2022-11-16T18:25:56.837Z,16.87
2022-11-16T18:28:23.392Z,16.95
2022-11-16T18:30:49.750Z,16.92
2022-11-16T18:33:16.199Z,16.91
2022-11-16T18:35:42.691Z,16.89
2022-11-16T18:38:09.048Z,16.91
2022-11-16T18:40:35.350Z,16.96
2022-11-16T18:43:01.704Z,16.96
2022-11-16T18:45:28.115Z,16.94
2022-11-16T18:47:54.493Z,16.88
2022-11-16T18:50:26.538Z,16.87
2022-11-16T18:52:53.281Z,16.87
2022-11-16T18:55:19.666Z,16.90
2022-11-16T18:57:46.024Z,16.87
2022-11-16T19:00:12.372Z,16.90
2022-11-16T19:02:38.846Z,16.79
2022-11-16T19:05:05.259Z,16.90
2022-11-16T19:07:31.685Z,16.91
2022-11-16T19:09:58.066Z,16.88
2022-11-16T19:12:24.404Z,16.78
2022-11-16T19:14:50.809Z,16.83
2022-11-16T19:17:17.155Z,16.84
2022-11-16T19:19:43.526Z,16.84
2022-11-16T19:22:10.896Z,16.79
2022-11-16T19:24:37.385Z,16.79
2022-11-16T19:27:03.750Z,16.80
2022-11-16T19:29:30.209Z,16.73
2022-11-16T19:31:56.528Z,16.72
2022-11-16T19:34:23.102Z,16.73
2022-11-16T19:36:50.720Z,16.73
2022-11-16T19:39:17.266Z,16.68
2022-11-16T19:41:43.646Z,16.71
2022-11-16T19:44:09.990Z,16.66
2022-11-16T19:46:36.299Z,16.72
2022-11-16T19:49:02.847Z,16.64
2022-11-16T19:51:29.216Z,16.70
2022-11-16T19:53:55.601Z,16.66
2022-11-16T19:56:21.937Z,16.64
2022-11-16T19:58:48.273Z,16.57
2022-11-16T20:01:14.740Z,16.66
2022-11-16T20:03:41.354Z,16.58
2022-11-16T20:06:07.823Z,16.58
2022-11-16T20:08:34.246Z,16.56
2022-11-16T20:11:00.599Z,16.57
2022-11-16T20:13:27.097Z,16.55
2022-11-16T20:15:53.471Z,16.57
2022-11-16T20:18:19.852Z,16.56
2022-11-16T20:20:46.210Z,16.53
2022-11-16T20:23:12.570Z,16.55
2022-11-16T20:25:38.929Z,16.53
2022-11-16T20:28:05.298Z,16.57
2022-11-16T20:30:31.685Z,16.56
2022-11-16T20:32:58.152Z,16.56
2022-11-16T20:35:24.502Z,16.55
2022-11-16T20:37:50.878Z,16.59
2022-11-16T20:40:17.267Z,16.53
2022-11-16T20:42:43.642Z,16.52
2022-11-16T20:45:10.010Z,16.49
2022-11-16T20:47:36.341Z,16.53
2022-11-16T20:50:02.802Z,16.53
2022-11-16T20:52:29.178Z,16.50
2022-11-16T20:54:55.602Z,16.52
2022-11-16T20:57:22.025Z,16.51
2022-11-16T20:59:48.412Z,16.54
2022-11-16T21:02:14.785Z,16.54
2022-11-16T21:04:41.186Z,16.51
2022-11-16T21:07:07.560Z,16.48
2022-11-16T21:09:33.901Z,16.48
2022-11-16T21:12:00.556Z,16.48
2022-11-16T21:14:27.225Z,16.45
2022-11-16T21:16:53.578Z,16.52
2022-11-16T21:19:19.916Z,16.49
2022-11-16T21:21:46.284Z,16.45
2022-11-16T21:24:12.683Z,16.46
2022-11-16T21:26:39.032Z,16.42
2022-11-16T21:29:05.644Z,16.42
2022-11-16T21:31:31.997Z,16.41
2022-11-16T21:33:58.432Z,16.43
2022-11-16T21:36:24.781Z,16.47
2022-11-16T21:38:51.190Z,16.46
2022-11-16T21:41:17.562Z,16.42
2022-11-16T21:43:44.215Z,16.44
2022-11-16T21:46:10.559Z,16.41
2022-11-16T21:48:37.072Z,16.42
2022-11-16T21:51:03.597Z,16.40
2022-11-16T21:53:29.897Z,16.40
2022-11-16T21:55:56.403Z,16.40
2022-11-16T21:58:22.773Z,16.39
2022-11-16T22:00:49.217Z,16.41
2022-11-16T22:03:15.762Z,16.40
2022-11-16T22:05:42.089Z,16.36
2022-11-16T22:08:08.600Z,16.40
2022-11-16T22:10:35.000Z,16.38
2022-11-16T22:13:01.389Z,16.41
2022-11-16T22:15:27.872Z,16.34
2022-11-16T22:17:54.469Z,16.35
2022-11-16T22:20:20.805Z,16.35
2022-11-16T22:22:47.250Z,16.38
2022-11-16T22:25:13.941Z,16.38
2022-11-16T22:27:58.837Z,16.36
2022-11-16T22:30:26.937Z,16.38
2022-11-16T22:32:53.306Z,16.36
2022-11-16T22:35:19.711Z,16.34
2022-11-16T22:37:46.412Z,16.33
2022-11-16T22:40:17.601Z,16.35
2022-11-16T22:42:44.386Z,16.41
2022-11-16T22:45:10.818Z,16.33
2022-11-16T22:47:37.259Z,16.37
2022-11-16T22:50:03.654Z,16.34
2022-11-16T22:52:30.066Z,16.35
2022-11-16T22:54:56.407Z,16.27
2022-11-16T22:57:22.800Z,16.27
2022-11-16T22:59:49.264Z,16.31
2022-11-16T23:02:15.692Z,16.27
2022-11-16T23:04:42.084Z,16.26
2022-11-16T23:07:08.573Z,16.28
2022-11-16T23:09:35.278Z,16.23
2022-11-16T23:12:04.416Z,16.25
2022-11-16T23:14:30.833Z,16.28
2022-11-16T23:16:57.295Z,16.26
2022-11-16T23:19:23.683Z,16.27
2022-11-16T23:21:50.017Z,16.24
2022-11-16T23:24:16.455Z,16.21
2022-11-16T23:26:42.809Z,16.23
2022-11-16T23:29:09.160Z,16.25
2022-11-16T23:31:35.507Z,16.23
2022-11-16T23:34:01.916Z,16.23
2022-11-16T23:36:28.289Z,16.22
2022-11-16T23:38:54.875Z,16.23
2022-11-16T23:41:21.232Z,16.21
2022-11-16T23:43:47.776Z,16.25
2022-11-16T23:46:14.167Z,16.24
2022-11-16T23:48:40.582Z,16.32
2022-11-16T23:51:07.100Z,16.24
2022-11-16T23:53:34.041Z,16.23
2022-11-16T23:56:05.524Z,16.20
2022-11-16T23:58:32.574Z,16.19
